WetterOnline ( https://www.wetteronline.de )

Wetter aktuell Hof

Aktuelles Wetter: Hof/Flughafen (568m)

6-stündlich | Neueste Meldungen
Ortszeit Temperatur Wetter
Fr, 06.08. 2:00 13.3° C wolkenlos
Do, 05.08. 20:00 15.7° C bewölkt
Do, 05.08. 14:00 17.6° C bedeckt
Do, 05.08. 8:00 13.9° C bedeckt
Do, 05.08. 2:00 13.8° C Sprühregen
Mi, 04.08. 20:00 16.1° C bedeckt
Mi, 04.08. 14:00 16.7° C bedeckt
Mi, 04.08. 8:00 13.3° C bedeckt
Ortszeit Temperatur Wetter
Fr, 06.08. 6:00 13.9° C bedeckt
Fr, 06.08. 5:50 13.9° C bedeckt
Fr, 06.08. 5:40 13.7° C bedeckt
Fr, 06.08. 5:30 13.6° C bedeckt
Fr, 06.08. 5:20 13.6° C bedeckt
Fr, 06.08. 5:10 13.3° C bedeckt
Fr, 06.08. 5:00 12.1° C bedeckt
Fr, 06.08. 4:30 12.2° C wolkig
Fr, 06.08. 4:00 12.2° C wolkenlos
Fr, 06.08. 3:30 12.6° C wolkenlos
Fr, 06.08. 3:00 13.1° C wolkenlos
Ortszeit Relative Feuchte Sichtweite
Fr, 06.08. 2:00 94% 30 km
Do, 05.08. 20:00 81% >70 km
Do, 05.08. 14:00 66% >70 km
Do, 05.08. 8:00 91% 29 km
Do, 05.08. 2:00 96% 18 km
Mi, 04.08. 20:00 77% 65 km
Mi, 04.08. 14:00 71% >70 km
Mi, 04.08. 8:00 93% 25 km
Ortszeit Relative Feuchte Sichtweite
Fr, 06.08. 6:00 89% 55 km
Fr, 06.08. 5:50 89% -
Fr, 06.08. 5:40 90% -
Fr, 06.08. 5:30 88% 60 km
Fr, 06.08. 5:20 88% -
Fr, 06.08. 5:10 89% -
Fr, 06.08. 5:00 92% 35 km
Fr, 06.08. 4:30 93% 40 km
Fr, 06.08. 4:00 92% 45 km
Fr, 06.08. 3:30 90% 65 km
Fr, 06.08. 3:00 88% 60 km
Ortszeit Niederschlagsmenge Niederschlagsart
Fr, 06.08. 2:00 0.0 l/m2 in 6 Std. -
Do, 05.08. 20:00 1 l/m2 in 12 Std. Regen
Do, 05.08. 14:00 0.9 l/m2 in 6 Std. Regen
Do, 05.08. 8:00 0.4 l/m2 in 12 Std. Regen
Do, 05.08. 2:00 0.1 l/m2 in 6 Std. Regen
Mi, 04.08. 20:00 0.1 l/m2 in 12 Std. -
Mi, 04.08. 14:00 0.1 l/m2 in 6 Std. Sprühregen
Mi, 04.08. 8:00 6 l/m2 in 12 Std. Regen
Ortszeit Niederschlagsmenge Niederschlagsart
Fr, 06.08. 6:00 0.0 l/m2 in 1 Std. -
Fr, 06.08. 5:50 keine Meldung -
Fr, 06.08. 5:40 keine Meldung -
Fr, 06.08. 5:30 0.0 l/m2 in 1 Std. -
Fr, 06.08. 5:20 keine Meldung -
Fr, 06.08. 5:10 keine Meldung -
Fr, 06.08. 5:00 0.0 l/m2 in 1 Std. -
Fr, 06.08. 4:30 0.0 l/m2 in 1 Std. -
Fr, 06.08. 4:00 0.0 l/m2 in 1 Std. -
Fr, 06.08. 3:30 0.0 l/m2 in 1 Std. -
Fr, 06.08. 3:00 0.0 l/m2 in 1 Std. -
Ortszeit Stärke Spitze Richtung
km/h Bft. km/h Grad Sektor
Fr, 06.08. 2:00 4 1 14 220° SW
Do, 05.08. 20:00 7 2 25 60° NO
Do, 05.08. 14:00 7 2 14 320° NW
Do, 05.08. 8:00 4 1 11 270° W
Do, 05.08. 2:00 4 1 7 130° SO
Mi, 04.08. 20:00 4 1 25 240° SW
Mi, 04.08. 14:00 7 2 19 210° SW
Mi, 04.08. 8:00 11 2 18 220° SW
Ortszeit Stärke Spitze Richtung
km/h Bft. km/h Grad Sektor
Fr, 06.08. 6:00 7 2 14 230° SW
Fr, 06.08. 5:50 7 2 - 230° SW
Fr, 06.08. 5:40 6 1 - 210° SW
Fr, 06.08. 5:30 7 2 14 200° S
Fr, 06.08. 5:20 7 2 - 200° S
Fr, 06.08. 5:10 7 2 - 190° S
Fr, 06.08. 5:00 4 1 11 160° S
Fr, 06.08. 4:30 4 1 11 180° S
Fr, 06.08. 4:00 4 1 11 190° S
Fr, 06.08. 3:30 4 1 11 180° S
Fr, 06.08. 3:00 6 1 19 210° SW
Ortszeit Untergrenze Bedeckung Gattung
total tief tief mittel hoch
Fr, 06.08. 2:00 - 0/8 0/8 - - -
Do, 05.08. 20:00 1440 m 7/8 7/8 - - -
Do, 05.08. 14:00 660 m 8/8 8/8 - - -
Do, 05.08. 8:00 570 m 8/8 8/8 - - -
Do, 05.08. 2:00 1230 m 8/8 8/8 - - -
Mi, 04.08. 20:00 2100 m 8/8 8/8 - - -
Mi, 04.08. 14:00 1500 m 8/8 8/8 - - -
Mi, 04.08. 8:00 270 m 8/8 8/8 - - -
Ortszeit Bedeckungsgrad in Achtel und Wolkenuntergrenze
Fr, 06.08. 6:00 4(270m) 5(1800m) 8(2400m)
Fr, 06.08. 5:50 4(270m) 5(1800m) 8(2400m)
Fr, 06.08. 5:40 1(240m) 1(1800m) 8(2400m)
Fr, 06.08. 5:30 2(390m) 8(2100m)
Fr, 06.08. 5:20 2(390m) 8(2100m)
Fr, 06.08. 5:10 3(390m) 7(2100m) 8(2400m)
Fr, 06.08. 5:00 1(420m) 8(2100m) 8(2400m)
Fr, 06.08. 4:30 4(2100m) 6(3900m)
Fr, 06.08. 4:00 keine Wolken
Fr, 06.08. 3:30 keine Wolken
Fr, 06.08. 3:00 keine Wolken
Ortszeit Luftdruck NN (hPa) Tendenz (hPa in 3 Std.)
Fr, 06.08. 2:00 1008 - 0,9
Do, 05.08. 20:00 1008 - 0,2
Do, 05.08. 14:00 1009 - 1,1
Do, 05.08. 8:00 1011 - 0,4
Do, 05.08. 2:00 1012 - 0,7
Mi, 04.08. 20:00 1012 - 0,6
Mi, 04.08. 14:00 1013 - 0,3
Mi, 04.08. 8:00 1014 + 0,7
Ortszeit Luftdruck NN (hPa) Tendenz (hPa in 3 Std.)
Fr, 06.08. 6:00 1007 - 0,4
Fr, 06.08. 5:50 1007 keine Meldung
Fr, 06.08. 5:40 1007 keine Meldung
Fr, 06.08. 5:30 1007 - 0,4
Fr, 06.08. 5:20 1007 keine Meldung
Fr, 06.08. 5:10 1007 keine Meldung
Fr, 06.08. 5:00 1007 - 0,5
Fr, 06.08. 4:30 1007 - 0,8
Fr, 06.08. 4:00 1007 - 0,8
Fr, 06.08. 3:30 1008 - 0,7
Fr, 06.08. 3:00 1007 - 0,8
Ortszeit Schneehöhe (cm)
Fr, 06.08. 2:00 -
Do, 05.08. 20:00 -
Do, 05.08. 14:00 -
Do, 05.08. 8:00 -
Do, 05.08. 2:00 -
Mi, 04.08. 20:00 -
Mi, 04.08. 14:00 -
Mi, 04.08. 8:00 -
Ortszeit Schneehöhe (cm)
Fr, 06.08. 6:00 -
Fr, 06.08. 5:50 -
Fr, 06.08. 5:40 -
Fr, 06.08. 5:30 -
Fr, 06.08. 5:20 -
Fr, 06.08. 5:10 -
Fr, 06.08. 5:00 -
Fr, 06.08. 4:30 -
Fr, 06.08. 4:00 -
Fr, 06.08. 3:30 -
Fr, 06.08. 3:00 -
Link zu dieser Seite / Seite empfehlen

Das Wetter in ...